createdAt,value
2023-04-04T00:00:40.401Z,9.711658
2023-04-04T00:01:40.025Z,9.711649
2023-04-04T00:02:40.048Z,9.711665
2023-04-04T00:03:41.165Z,9.711671
2023-04-04T00:04:40.045Z,9.711667
2023-04-04T00:05:39.984Z,9.711636
2023-04-04T00:06:40.551Z,9.711640
2023-04-04T00:07:39.962Z,9.711634
2023-04-04T00:08:39.961Z,9.711616
2023-04-04T00:09:39.963Z,9.711660
2023-04-04T00:10:40.148Z,9.711644
2023-04-04T00:11:40.548Z,9.711616
2023-04-04T00:12:39.933Z,9.711652
2023-04-04T00:13:39.940Z,9.711685
2023-04-04T00:14:39.924Z,9.711662
2023-04-04T00:15:39.902Z,9.711631
2023-04-04T00:16:39.899Z,9.711569
2023-04-04T00:17:39.914Z,9.711593
2023-04-04T00:18:39.889Z,9.711609
2023-04-04T00:19:39.903Z,9.711556
2023-04-04T00:20:40.111Z,9.711516
2023-04-04T00:21:39.844Z,9.711534
2023-04-04T00:52:30.256Z,9.711587
2023-04-04T00:53:30.189Z,9.711646
2023-04-04T00:54:30.187Z,9.711658
2023-04-04T00:55:30.168Z,9.711699
2023-04-04T00:56:30.176Z,9.711688
2023-04-04T00:57:30.156Z,9.711657
2023-04-04T00:58:30.162Z,9.711707
2023-04-04T00:59:30.171Z,9.711680
2023-04-04T01:00:30.142Z,9.711635
2023-04-04T01:01:30.173Z,9.711655
2023-04-04T01:02:30.153Z,9.711639
2023-04-04T01:03:30.121Z,9.711676
2023-04-04T01:04:30.137Z,9.711735
2023-04-04T01:05:30.094Z,9.711683
2023-04-04T01:06:30.103Z,9.711704
2023-04-04T01:07:30.089Z,9.711698
2023-04-04T01:08:30.072Z,9.711709
2023-04-04T01:09:30.074Z,9.711723
2023-04-04T01:10:30.054Z,9.711707
2023-04-04T01:11:30.065Z,9.711731
2023-04-04T01:12:30.046Z,9.711742
2023-04-04T01:13:30.273Z,9.711636
2023-04-04T01:14:30.033Z,9.711632
2023-04-04T01:15:30.013Z,9.711659
2023-04-04T01:16:30.085Z,9.711681
2023-04-04T01:17:30.056Z,9.711691
2023-04-04T01:18:30.011Z,9.711726
2023-04-04T01:19:29.982Z,9.711677
2023-04-04T01:20:29.975Z,9.711675
2023-04-04T01:21:29.962Z,9.711657
2023-04-04T01:22:29.980Z,9.711689
2023-04-04T01:23:29.977Z,9.711712
2023-04-04T01:24:29.958Z,9.711678
2023-04-04T01:25:29.934Z,9.711722
2023-04-04T01:26:29.954Z,9.711709
2023-04-04T01:27:29.923Z,9.711723
2023-04-04T01:28:29.905Z,9.711669
2023-04-04T01:29:29.926Z,9.711708
2023-04-04T01:30:29.908Z,9.711673
2023-04-04T01:31:29.945Z,9.711741
2023-04-04T01:32:29.948Z,9.711683
2023-04-04T01:33:29.877Z,9.711664
2023-04-04T01:34:29.858Z,9.711689
2023-04-04T01:35:29.867Z,9.711695
2023-04-04T01:36:30.773Z,9.711706
2023-04-04T01:37:29.844Z,9.711680
2023-04-04T01:38:29.851Z,9.711668
2023-04-04T01:39:29.865Z,9.711737
2023-04-04T01:40:29.854Z,9.711792
2023-04-04T01:41:29.830Z,9.711695
2023-04-04T01:42:29.801Z,9.711697
2023-04-04T01:43:29.822Z,9.711822
2023-04-04T01:44:29.806Z,9.711713
2023-04-04T01:45:29.786Z,9.711723
2023-04-04T01:46:29.837Z,9.711771
2023-04-04T01:47:29.816Z,9.711739
2023-04-04T01:48:29.763Z,9.711757
2023-04-04T01:49:29.747Z,9.711766
2023-04-04T01:50:29.755Z,9.711720
2023-04-04T01:51:29.723Z,9.711742
2023-04-04T01:52:29.734Z,9.711688
2023-04-04T01:53:29.737Z,9.711750
2023-04-04T01:54:29.727Z,9.711716
2023-04-04T01:55:29.725Z,9.711713
2023-04-04T01:56:29.706Z,9.711717
2023-04-04T01:57:29.711Z,9.711729
2023-04-04T01:58:29.683Z,9.711699
2023-04-04T01:59:29.839Z,9.711704
2023-04-04T02:00:29.682Z,9.711756
2023-04-04T02:01:29.708Z,9.711761
2023-04-04T02:02:29.789Z,9.711973
2023-04-04T02:03:29.640Z,9.711779
2023-04-04T02:04:30.308Z,9.711767
2023-04-04T02:05:29.619Z,9.711698
2023-04-04T02:06:29.640Z,9.711649
2023-04-04T02:07:29.616Z,9.711742
2023-04-04T02:08:29.597Z,9.711734
2023-04-04T02:09:29.598Z,9.711762
2023-04-04T02:10:30.278Z,9.711995
2023-04-04T02:11:29.583Z,9.711946
2023-04-04T02:12:29.573Z,9.711789
2023-04-04T02:13:29.555Z,9.711883
2023-04-04T02:14:29.555Z,9.711738
2023-04-04T02:15:29.535Z,9.711762
2023-04-04T02:16:29.547Z,9.711877
2023-04-04T02:17:29.524Z,9.711939
2023-04-04T02:18:29.534Z,9.711985
2023-04-04T02:19:29.513Z,9.711830
2023-04-04T02:20:29.512Z,9.711870
2023-04-04T02:21:29.504Z,9.711843
2023-04-04T02:22:29.475Z,9.711810
2023-04-04T02:23:29.488Z,9.711629
2023-04-04T02:24:29.488Z,9.711786
2023-04-04T02:25:29.468Z,9.711795
2023-04-04T02:26:29.469Z,9.711722
2023-04-04T02:27:30.273Z,9.711742
2023-04-04T02:28:29.459Z,9.711640
2023-04-04T02:29:29.427Z,9.711726
2023-04-04T02:30:29.428Z,9.711706
2023-04-04T02:31:30.345Z,9.711776
2023-04-04T02:32:29.434Z,9.711802
2023-04-04T02:33:29.393Z,9.711763
2023-04-04T02:34:29.405Z,9.711734
2023-04-04T02:35:29.385Z,9.712017
2023-04-04T02:36:29.390Z,9.711975
2023-04-04T02:37:29.370Z,9.711841
2023-04-04T02:38:29.372Z,9.711962
2023-04-04T02:39:29.352Z,9.711930
2023-04-04T02:40:29.337Z,9.711909
2023-04-04T02:41:29.342Z,9.711952
2023-04-04T02:42:29.345Z,9.711741
2023-04-04T02:43:29.325Z,9.711848
2023-04-04T02:44:29.309Z,9.711844
2023-04-04T02:45:29.314Z,9.712027
2023-04-04T02:46:29.355Z,9.711792
2023-04-04T02:47:29.316Z,9.711738
2023-04-04T02:48:29.283Z,9.711662
2023-04-04T02:49:29.301Z,9.711663
2023-04-04T02:50:29.285Z,9.711671
2023-04-04T02:51:29.283Z,9.711683
2023-04-04T02:52:29.262Z,9.711704
2023-04-04T02:53:29.256Z,9.711691
2023-04-04T02:54:29.240Z,9.711686
2023-04-04T02:55:29.245Z,9.711681
2023-04-04T02:56:29.258Z,9.711697
2023-04-04T02:57:29.219Z,9.711635
2023-04-04T02:58:29.267Z,9.711669
2023-04-04T02:59:29.331Z,9.711654
2023-04-04T03:00:29.196Z,9.711715
2023-04-04T03:01:29.293Z,9.711715
2023-04-04T03:02:29.369Z,9.711605
2023-04-04T03:03:29.387Z,9.711695
2023-04-04T03:04:29.162Z,9.711613
2023-04-04T03:05:29.163Z,9.711702
2023-04-04T03:06:29.142Z,9.711659
2023-04-04T03:07:29.147Z,9.711704
2023-04-04T03:08:29.133Z,9.711675
2023-04-04T03:09:29.137Z,9.711647
2023-04-04T03:10:29.117Z,9.711707
2023-04-04T03:11:29.142Z,9.711762
2023-04-04T03:12:29.102Z,9.711736
2023-04-04T03:13:29.089Z,9.711797
2023-04-04T03:14:29.100Z,9.711740
2023-04-04T03:15:29.090Z,9.711715
2023-04-04T03:16:29.136Z,9.711731
2023-04-04T03:17:29.088Z,9.711753
2023-04-04T03:18:29.124Z,9.711765
2023-04-04T03:19:29.070Z,9.712053
2023-04-04T03:20:29.024Z,9.712013
2023-04-04T03:21:29.040Z,9.711868
2023-04-04T03:22:29.028Z,9.711730
2023-04-04T03:23:29.018Z,9.711756
2023-04-04T03:24:30.034Z,9.711733
2023-04-04T03:25:29.011Z,9.711784
2023-04-04T03:26:29.008Z,9.711708
2023-04-04T03:27:28.974Z,9.711727
2023-04-04T03:28:28.985Z,9.711720
2023-04-04T03:29:28.966Z,9.711662
2023-04-04T03:30:28.955Z,9.711643
2023-04-04T03:31:28.964Z,9.711692
2023-04-04T03:32:29.048Z,9.711728
2023-04-04T03:33:28.958Z,9.711724
2023-04-04T03:34:28.946Z,9.711683
2023-04-04T03:35:28.921Z,9.711516
2023-04-04T03:36:28.911Z,9.711703
2023-04-04T03:37:28.899Z,9.711749
2023-04-04T03:38:28.881Z,9.711859
2023-04-04T03:39:28.903Z,9.711885
2023-04-04T03:40:28.870Z,9.711806
2023-04-04T03:41:28.880Z,9.711824
2023-04-04T03:42:28.860Z,9.711841
2023-04-04T03:43:28.853Z,9.711849
2023-04-04T03:44:28.832Z,9.711626
2023-04-04T03:45:28.838Z,9.711693
2023-04-04T03:46:28.938Z,9.711623
2023-04-04T03:47:28.856Z,9.711702
2023-04-04T03:48:28.823Z,9.711748
2023-04-04T03:49:28.802Z,9.711688
2023-04-04T03:50:28.824Z,9.711670
2023-04-04T03:51:28.814Z,9.711577
2023-04-04T03:52:29.732Z,9.711557
2023-04-04T03:53:28.831Z,9.711576
2023-04-04T03:54:28.817Z,9.711588
2023-04-04T03:55:28.765Z,9.711589
2023-04-04T03:56:28.773Z,9.711585
2023-04-04T03:57:28.756Z,9.711585
2023-04-04T03:58:28.753Z,9.711554
2023-04-04T03:59:28.821Z,9.711582
2023-04-04T04:00:28.730Z,9.711533
2023-04-04T04:01:28.725Z,9.711547
2023-04-04T04:02:28.752Z,9.711587
2023-04-04T04:03:28.757Z,9.711579
2023-04-04T04:04:28.797Z,9.711581
2023-04-04T04:05:28.669Z,9.711555
2023-04-04T04:06:28.672Z,9.711578
2023-04-04T04:07:28.665Z,9.711594
2023-04-04T04:08:28.662Z,9.711590
2023-04-04T04:09:28.643Z,9.711586
2023-04-04T04:10:28.644Z,9.711615
2023-04-04T04:11:28.652Z,9.711618
2023-04-04T04:12:29.206Z,9.711613
2023-04-04T04:13:28.627Z,9.711658
2023-04-04T04:14:28.610Z,9.711617
2023-04-04T04:15:28.601Z,9.711637
2023-04-04T04:16:28.610Z,9.711622
2023-04-04T04:17:28.855Z,9.711630
2023-04-04T04:18:28.596Z,9.711650
2023-04-04T04:19:28.571Z,9.711641
2023-04-04T04:20:28.573Z,9.711658
2023-04-04T04:21:28.588Z,9.711659
2023-04-04T04:22:28.567Z,9.711692
2023-04-04T04:23:28.563Z,9.711660
2023-04-04T04:24:28.551Z,9.711662
2023-04-04T04:25:28.532Z,9.711651
2023-04-04T04:26:28.524Z,9.711690
2023-04-04T04:27:28.517Z,9.711723
2023-04-04T04:28:34.006Z,9.711688
2023-04-04T04:29:30.224Z,9.711706
2023-04-04T04:30:28.493Z,9.711727
2023-04-04T04:31:28.520Z,9.711703
2023-04-04T04:32:28.532Z,9.711701
2023-04-04T04:33:28.483Z,9.711641
2023-04-04T04:34:28.497Z,9.711709
2023-04-04T04:35:29.323Z,9.711669
2023-04-04T04:36:29.305Z,9.711742
2023-04-04T04:37:28.432Z,9.711701
2023-04-04T04:38:28.434Z,9.711698
2023-04-04T04:39:28.454Z,9.711725
2023-04-04T04:40:28.475Z,9.711739
2023-04-04T04:41:28.434Z,9.711822
2023-04-04T04:42:28.412Z,9.711739
2023-04-04T04:43:28.410Z,9.711734
2023-04-04T04:44:28.398Z,9.711798
2023-04-04T04:45:28.392Z,9.711746
2023-04-04T04:46:28.399Z,9.711775
2023-04-04T04:47:28.433Z,9.711812
2023-04-04T04:48:28.379Z,9.711647
2023-04-04T04:49:28.401Z,9.711772
2023-04-04T04:50:29.381Z,9.711725
2023-04-04T04:51:28.342Z,9.711694
2023-04-04T04:52:28.359Z,9.711946
2023-04-04T04:53:28.330Z,9.711677
2023-04-04T04:54:28.332Z,9.711623
2023-04-04T04:55:28.314Z,9.711755
2023-04-04T04:56:28.330Z,9.711843
2023-04-04T04:57:28.314Z,9.711851
2023-04-04T04:58:28.837Z,9.711799
2023-04-04T04:59:29.323Z,9.711834
2023-04-04T05:00:28.288Z,9.712010
2023-04-04T05:01:28.355Z,9.712115
2023-04-04T05:02:28.467Z,9.712111
2023-04-04T05:03:28.272Z,9.712033
2023-04-04T05:04:29.218Z,9.711837
2023-04-04T05:05:28.248Z,9.711551
2023-04-04T05:06:28.323Z,9.711778
2023-04-04T05:07:28.221Z,9.711783
2023-04-04T05:08:28.233Z,9.711781
2023-04-04T05:09:28.244Z,9.711752
2023-04-04T05:10:28.217Z,9.712038
2023-04-04T05:11:28.814Z,9.711716
2023-04-04T05:12:28.200Z,9.711721
2023-04-04T05:13:29.000Z,9.711567
2023-04-04T05:14:28.804Z,9.711607
2023-04-04T05:15:28.162Z,9.711360
2023-04-04T05:16:28.212Z,9.711897
2023-04-04T05:17:28.837Z,9.711822
2023-04-04T05:18:28.143Z,9.711705
2023-04-04T05:19:28.211Z,9.711655
2023-04-04T05:20:28.119Z,9.711601
2023-04-04T05:21:28.155Z,9.711704
2023-04-04T05:22:28.152Z,9.711710
2023-04-04T05:23:28.144Z,9.711699
2023-04-04T05:24:28.102Z,9.711645
2023-04-04T05:25:28.071Z,9.711670
2023-04-04T05:26:28.109Z,9.711657
2023-04-04T05:27:28.072Z,9.711658
2023-04-04T05:28:28.832Z,9.711675
2023-04-04T05:29:28.036Z,9.711680
2023-04-04T05:30:28.075Z,9.711643
2023-04-04T05:31:28.352Z,9.711642
2023-04-04T05:32:28.051Z,9.711632
2023-04-04T05:33:28.049Z,9.711678
2023-04-04T05:34:28.011Z,9.711691
2023-04-04T05:35:28.030Z,9.711691
2023-04-04T05:36:28.066Z,9.711700
2023-04-04T05:37:27.992Z,9.711741
2023-04-04T05:38:27.996Z,9.711727
2023-04-04T05:39:27.997Z,9.711704
2023-04-04T05:40:28.747Z,9.711691
2023-04-04T05:41:27.952Z,9.711694
2023-04-04T05:42:27.946Z,9.711663
2023-04-04T05:43:27.938Z,9.711666
2023-04-04T05:44:27.959Z,9.711671
2023-04-04T05:45:27.944Z,9.711646
2023-04-04T05:46:28.049Z,9.711763
2023-04-04T05:47:27.934Z,9.711741
2023-04-04T05:48:27.906Z,9.711723
2023-04-04T05:49:27.954Z,9.711765
2023-04-04T05:50:27.885Z,9.711732
2023-04-04T05:51:28.830Z,9.711700
2023-04-04T05:52:27.894Z,9.711737
2023-04-04T05:53:27.871Z,9.711728
2023-04-04T05:54:27.852Z,9.711735
2023-04-04T05:55:27.854Z,9.711727
2023-04-04T05:56:27.829Z,9.711679
2023-04-04T05:57:27.841Z,9.711658
2023-04-04T05:58:27.816Z,9.711691
2023-04-04T05:59:27.881Z,9.711718
2023-04-04T06:00:28.825Z,9.711762
2023-04-04T06:01:27.807Z,9.711703
2023-04-04T06:02:27.861Z,9.711624
2023-04-04T06:03:27.872Z,9.711687
2023-04-04T06:04:27.794Z,9.711666
2023-04-04T06:05:27.786Z,9.711650
2023-04-04T06:06:27.775Z,9.711794
2023-04-04T06:07:27.774Z,9.711822
2023-04-04T06:08:27.766Z,9.711859
2023-04-04T06:09:27.735Z,9.711882
2023-04-04T06:10:27.742Z,9.711802
2023-04-04T06:11:27.715Z,9.711810
2023-04-04T06:12:28.247Z,9.711783
2023-04-04T06:13:27.708Z,9.711957
2023-04-04T06:14:27.697Z,9.711749
2023-04-04T06:15:27.723Z,9.711956
2023-04-04T06:16:27.747Z,9.711922
2023-04-04T06:17:27.755Z,9.711904
2023-04-04T06:18:27.668Z,9.712049
2023-04-04T06:19:27.631Z,9.711984
2023-04-04T06:20:27.638Z,9.711921
2023-04-04T06:21:27.630Z,9.711939
2023-04-04T06:22:28.251Z,9.711886
2023-04-04T06:23:27.645Z,9.711859
2023-04-04T06:24:27.629Z,9.711791
2023-04-04T06:25:27.617Z,9.711888
2023-04-04T06:26:27.608Z,9.711852
2023-04-04T06:27:27.662Z,9.711831
2023-04-04T06:28:27.675Z,9.711820
2023-04-04T06:29:27.616Z,9.711804
2023-04-04T06:30:27.625Z,9.711929
2023-04-04T06:31:27.586Z,9.711963
2023-04-04T06:32:27.556Z,9.711937
2023-04-04T06:33:27.541Z,9.711946
2023-04-04T06:34:27.547Z,9.711971
2023-04-04T06:35:27.568Z,9.711843
2023-04-04T06:36:28.368Z,9.711785
2023-04-04T06:37:27.489Z,9.711821
2023-04-04T06:38:27.492Z,9.711871
2023-04-04T06:39:27.467Z,9.711895
2023-04-04T06:40:27.480Z,9.711847
2023-04-04T06:41:27.466Z,9.711803
2023-04-04T06:42:27.471Z,9.711823
2023-04-04T06:43:28.840Z,9.711927
2023-04-04T06:44:27.526Z,9.711993
2023-04-04T06:45:27.492Z,9.711864
2023-04-04T06:46:27.467Z,9.711803
2023-04-04T06:47:27.463Z,9.711767
2023-04-04T06:48:27.845Z,9.711720
2023-04-04T06:49:29.375Z,9.711746
2023-04-04T06:50:27.416Z,9.711775
2023-04-04T06:51:27.380Z,9.711761
2023-04-04T06:52:27.392Z,9.711732
2023-04-04T06:53:27.416Z,9.711714
2023-04-04T06:54:27.394Z,9.711709
2023-04-04T06:55:28.385Z,9.711829
2023-04-04T06:56:27.364Z,9.711817
2023-04-04T06:57:27.375Z,9.711748
2023-04-04T06:58:27.358Z,9.711677
2023-04-04T06:59:28.295Z,9.711722
2023-04-04T07:00:27.375Z,9.711788
2023-04-04T07:01:27.317Z,9.711759
2023-04-04T07:02:27.330Z,9.711877
2023-04-04T07:03:28.239Z,9.711818
2023-04-04T07:04:27.292Z,9.711734
2023-04-04T07:05:27.850Z,9.711827
2023-04-04T07:06:27.276Z,9.711577
2023-04-04T07:07:27.307Z,9.711724
2023-04-04T07:08:28.751Z,9.711786
2023-04-04T07:09:29.448Z,9.711806
2023-04-04T07:10:28.246Z,9.711836
2023-04-04T07:11:27.307Z,9.711820
2023-04-04T07:12:27.253Z,9.711908
2023-04-04T07:13:27.868Z,9.711845
2023-04-04T07:14:28.210Z,9.711640
2023-04-04T07:15:27.794Z,9.711806
2023-04-04T07:16:27.250Z,9.711819
2023-04-04T07:17:27.235Z,9.711698
2023-04-04T07:18:27.250Z,9.711640
2023-04-04T07:19:27.192Z,9.711713
2023-04-04T07:20:27.850Z,9.711675
2023-04-04T07:21:27.158Z,9.711747
2023-04-04T07:22:27.234Z,9.711657
2023-04-04T07:23:27.157Z,9.711740
2023-04-04T07:24:29.787Z,9.711692
2023-04-04T07:25:27.151Z,9.711558
2023-04-04T07:26:27.161Z,9.711632
2023-04-04T07:27:27.183Z,9.711566
2023-04-04T07:28:27.216Z,9.711633
2023-04-04T07:29:27.194Z,9.711717
2023-04-04T07:30:27.171Z,9.711836
2023-04-04T07:31:27.121Z,9.711764
2023-04-04T07:32:27.075Z,9.711771
2023-04-04T07:33:27.076Z,9.711723
2023-04-04T07:34:27.109Z,9.711686
2023-04-04T07:35:27.070Z,9.711693
2023-04-04T07:36:29.785Z,9.711721
2023-04-04T07:37:27.031Z,9.711689
2023-04-04T07:38:27.032Z,9.711867
2023-04-04T07:39:27.828Z,9.712088
2023-04-04T07:40:27.040Z,9.711937
2023-04-04T07:41:27.029Z,9.711925
2023-04-04T07:42:27.032Z,9.711772
2023-04-04T07:43:26.976Z,9.711739
2023-04-04T07:44:26.982Z,9.711790
2023-04-04T07:45:26.966Z,9.712009
2023-04-04T07:46:26.996Z,9.711867
2023-04-04T07:47:26.998Z,9.711695
2023-04-04T07:48:26.985Z,9.711660
2023-04-04T07:49:26.952Z,9.711737
2023-04-04T07:50:27.935Z,9.711781
2023-04-04T07:51:26.927Z,9.711782
2023-04-04T07:52:26.897Z,9.711708
2023-04-04T07:53:27.791Z,9.711667
2023-04-04T07:54:26.889Z,9.711656
2023-04-04T07:55:26.889Z,9.711631
2023-04-04T07:56:27.840Z,9.711608
2023-04-04T07:57:26.898Z,9.711714
2023-04-04T07:58:26.889Z,9.711678
2023-04-04T07:59:28.891Z,9.711660
2023-04-04T08:00:26.864Z,9.711736
2023-04-04T08:01:26.835Z,9.711808
2023-04-04T08:02:26.896Z,9.711752
2023-04-04T08:03:26.927Z,9.711678
2023-04-04T08:04:26.880Z,9.711603
2023-04-04T08:05:26.811Z,9.711592
2023-04-04T08:06:26.807Z,9.711568
2023-04-04T08:07:29.299Z,9.711646
2023-04-04T08:08:27.768Z,9.711614
2023-04-04T08:09:26.864Z,9.711739
2023-04-04T08:10:26.767Z,9.711762
2023-04-04T08:11:26.813Z,9.711752
2023-04-04T08:12:26.752Z,9.711854
2023-04-04T08:13:26.738Z,9.711880
2023-04-04T08:14:26.744Z,9.711907
2023-04-04T08:15:26.756Z,9.711757
2023-04-04T08:16:26.769Z,9.711799
2023-04-04T08:17:26.775Z,9.711849
2023-04-04T08:18:27.380Z,9.711772
2023-04-04T08:19:26.727Z,9.711765
2023-04-04T08:20:26.694Z,9.711823
2023-04-04T08:21:26.689Z,9.711839
2023-04-04T08:25:35.206Z,9.712081
2023-04-04T08:26:35.876Z,9.711692
2023-04-04T08:27:35.887Z,9.711734
2023-04-04T08:28:35.145Z,9.711704
2023-04-04T08:29:35.106Z,9.711739
2023-04-04T08:30:35.086Z,9.711723
2023-04-04T08:31:36.386Z,9.711828
2023-04-04T08:32:35.256Z,9.711630
2023-04-04T08:33:47.361Z,9.711691
2023-04-04T08:34:37.021Z,9.711611
2023-04-04T08:35:35.080Z,9.711635
2023-04-04T08:36:35.054Z,9.711822
2023-04-04T08:37:35.047Z,9.712250
2023-04-04T08:38:35.006Z,9.712192
2023-04-04T08:39:35.047Z,9.711621
2023-04-04T08:40:35.076Z,9.711845
2023-04-04T08:41:35.001Z,9.711875
2023-04-04T08:42:34.979Z,9.711885
2023-04-04T08:43:34.992Z,9.711985
2023-04-04T08:44:35.829Z,9.711911
2023-04-04T08:45:35.971Z,9.712198
2023-04-04T08:46:35.210Z,9.712007
2023-04-04T08:47:34.970Z,9.711973
2023-04-04T08:48:34.961Z,9.711814
2023-04-04T08:49:34.967Z,9.711570
2023-04-04T08:50:34.944Z,9.711613
2023-04-04T08:51:34.913Z,9.711649
2023-04-04T08:52:34.930Z,9.711759
2023-04-04T08:53:34.954Z,9.711777
2023-04-04T08:54:34.890Z,9.711727
2023-04-04T08:55:34.879Z,9.711599
2023-04-04T08:56:34.873Z,9.711685
2023-04-04T08:57:34.884Z,9.711691
2023-04-04T08:58:34.862Z,9.711690
2023-04-04T08:59:35.014Z,9.711642
2023-04-04T09:00:34.875Z,9.711717
2023-04-04T09:01:34.866Z,9.711739
2023-04-04T09:02:35.431Z,9.711738
2023-04-04T09:03:35.482Z,9.711728
2023-04-04T09:04:34.792Z,9.711842
2023-04-04T09:05:35.005Z,9.711915
2023-04-04T09:06:34.806Z,9.711896
2023-04-04T09:07:38.553Z,9.711872
2023-04-04T09:08:34.804Z,9.711859
2023-04-04T09:09:34.785Z,9.711842
2023-04-04T09:10:34.744Z,9.711937
2023-04-04T09:11:36.471Z,9.711811
2023-04-04T09:12:34.731Z,9.711860
2023-04-04T09:13:36.508Z,9.712081
2023-04-04T09:14:34.717Z,9.712087
2023-04-04T09:15:34.722Z,9.711934
2023-04-04T09:16:35.460Z,9.711943
2023-04-04T09:17:34.748Z,9.712079
2023-04-04T09:18:34.687Z,9.711743
2023-04-04T09:19:34.672Z,9.711655
2023-04-04T09:20:34.667Z,9.711632
2023-04-04T09:21:34.662Z,9.711666
2023-04-04T09:22:34.819Z,9.711739
2023-04-04T09:23:34.657Z,9.711843
2023-04-04T09:24:34.638Z,9.711678
2023-04-04T09:25:34.635Z,9.711732
2023-04-04T09:31:42.017Z,9.705659
2023-04-04T09:32:41.979Z,9.706976
2023-04-04T09:33:41.948Z,9.708956
2023-04-04T09:34:41.936Z,9.710978
2023-04-04T09:35:42.012Z,9.711780
2023-04-04T09:36:42.006Z,9.711901
2023-04-04T09:37:42.835Z,9.711775
2023-04-04T09:38:41.912Z,9.711703
2023-04-04T09:39:41.912Z,9.711767
2023-04-04T09:40:42.244Z,9.711706
2023-04-04T09:41:41.897Z,9.711849
2023-04-04T09:42:43.365Z,9.711870
2023-04-04T09:43:41.902Z,9.711702
2023-04-04T09:44:41.868Z,9.711508
2023-04-04T09:45:41.888Z,9.711539
2023-04-04T09:46:41.958Z,9.711518
2023-04-04T09:47:43.367Z,9.711584
2023-04-04T09:48:41.845Z,9.711540
2023-04-04T09:49:41.818Z,9.711553
2023-04-04T09:50:42.192Z,9.711615
2023-04-04T09:51:41.841Z,9.711582
2023-04-04T09:52:41.815Z,9.711696
2023-04-04T09:53:41.831Z,9.711709
2023-04-04T09:54:48.036Z,9.711784
2023-04-04T09:55:43.769Z,9.711836
2023-04-04T09:56:41.765Z,9.711760
2023-04-04T09:57:42.760Z,9.711682
2023-04-04T09:58:52.411Z,9.711672
2023-04-04T09:59:43.801Z,9.711646
2023-04-04T10:00:41.801Z,9.711530
2023-04-04T10:01:41.766Z,9.711639
2023-04-04T10:02:41.745Z,9.711716
2023-04-04T10:03:41.748Z,9.711617
2023-04-04T10:04:41.710Z,9.711658
2023-04-04T10:05:42.360Z,9.711798
2023-04-04T10:06:41.695Z,9.711684
2023-04-04T10:07:41.690Z,9.711707
2023-04-04T10:08:41.737Z,9.711822
2023-04-04T10:09:41.663Z,9.711724
2023-04-04T10:10:41.668Z,9.711698
2023-04-04T10:11:41.674Z,9.711704
2023-04-04T10:12:42.285Z,9.711586
2023-04-04T10:13:43.340Z,9.711674
2023-04-04T10:14:41.652Z,9.711666
2023-04-04T10:15:41.686Z,9.711687
2023-04-04T10:16:42.339Z,9.711682
2023-04-04T10:17:41.693Z,9.711757
2023-04-04T10:18:41.687Z,9.711859
2023-04-04T10:19:41.569Z,9.711774
2023-04-04T10:20:41.708Z,9.711675
2023-04-04T10:21:41.571Z,9.711568
2023-04-04T10:22:43.649Z,9.711625
2023-04-04T10:23:41.585Z,9.711520
2023-04-04T10:24:41.555Z,9.711463
2023-04-04T10:25:41.539Z,9.711419
2023-04-04T10:26:41.564Z,9.711481
2023-04-04T10:27:41.514Z,9.711530
2023-04-04T10:28:41.515Z,9.711492
2023-04-04T10:29:41.504Z,9.711654
2023-04-04T10:30:45.455Z,9.711700
2023-04-04T10:31:42.517Z,9.711597
2023-04-04T10:32:41.501Z,9.710932
2023-04-04T10:33:41.484Z,9.710814
2023-04-04T10:34:41.461Z,9.711301
2023-04-04T10:35:41.491Z,9.711720
2023-04-04T10:36:41.439Z,9.711701
2023-04-04T10:37:41.438Z,9.711739
2023-04-04T10:38:41.416Z,9.712038
2023-04-04T10:39:41.454Z,9.712632
2023-04-04T10:40:41.702Z,9.713034
2023-04-04T10:41:41.408Z,9.713158
2023-04-04T10:42:41.405Z,9.712566
2023-04-04T10:43:41.375Z,9.712198
2023-04-04T10:44:41.374Z,9.712202
2023-04-04T10:45:41.568Z,9.711686
2023-04-04T10:46:41.378Z,9.711665
2023-04-04T10:47:41.371Z,9.711247
2023-04-04T10:48:41.339Z,9.711576
2023-04-04T10:49:41.336Z,9.711551
2023-04-04T10:50:41.339Z,9.711562
2023-04-04T10:51:53.001Z,9.711376
2023-04-04T10:52:43.301Z,9.711528
2023-04-04T10:53:41.303Z,9.711623
2023-04-04T10:54:41.849Z,9.711495
2023-04-04T10:55:41.595Z,9.711477
2023-04-04T10:56:41.293Z,9.711372
2023-04-04T10:57:41.288Z,9.711176
2023-04-04T10:58:41.251Z,9.711306
2023-04-04T10:59:41.257Z,9.711425
2023-04-04T11:00:41.318Z,9.711468
2023-04-04T11:01:41.265Z,9.711580
2023-04-04T11:02:41.251Z,9.711637
2023-04-04T11:03:41.289Z,9.711697
2023-04-04T11:04:41.274Z,9.711483
2023-04-04T11:05:41.497Z,9.711447
2023-04-04T11:06:41.207Z,9.711381
2023-04-04T11:07:41.220Z,9.711452
2023-04-04T11:08:41.192Z,9.711501
2023-04-04T11:09:41.188Z,9.711628
2023-04-04T11:10:41.180Z,9.711658
2023-04-04T11:11:41.168Z,9.711813
2023-04-04T11:12:41.167Z,9.711693
2023-04-04T11:13:41.152Z,9.711799
2023-04-04T11:14:41.147Z,9.711801
2023-04-04T11:15:41.394Z,9.711473
2023-04-04T11:16:41.152Z,9.711817
2023-04-04T11:17:41.136Z,9.711959
2023-04-04T11:18:41.126Z,9.711881
2023-04-04T11:19:41.101Z,9.711670
2023-04-04T11:20:41.095Z,9.711518
2023-04-04T11:21:41.117Z,9.711255
2023-04-04T11:22:41.084Z,9.711023
2023-04-04T11:23:41.084Z,9.711198
2023-04-04T11:24:41.063Z,9.711361
2023-04-04T11:25:41.212Z,9.711329
2023-04-04T11:26:41.750Z,9.711732
2023-04-04T11:27:41.066Z,9.711933
2023-04-04T11:28:41.061Z,9.712007
2023-04-04T11:29:41.036Z,9.711941
2023-04-04T11:30:41.033Z,9.711961
2023-04-04T11:31:41.079Z,9.711871
2023-04-04T11:32:41.038Z,9.711815
2023-04-04T11:33:40.997Z,9.711864
2023-04-04T11:34:40.993Z,9.712059
2023-04-04T11:35:41.389Z,9.711740
2023-04-04T11:36:41.025Z,9.711622
2023-04-04T11:37:40.966Z,9.711668
2023-04-04T11:38:40.977Z,9.711693
2023-04-04T11:39:41.848Z,9.711664
2023-04-04T11:40:40.938Z,9.711803
2023-04-04T11:41:40.933Z,9.711688
2023-04-04T11:42:40.928Z,9.711748
2023-04-04T11:43:41.878Z,9.711718
2023-04-04T11:44:40.916Z,9.711630
2023-04-04T11:45:41.131Z,9.711668
2023-04-04T11:46:40.926Z,9.711702
2023-04-04T11:47:40.903Z,9.711713
2023-04-04T11:48:40.867Z,9.711702
2023-04-04T11:49:40.915Z,9.711681
2023-04-04T11:50:42.385Z,9.711669
2023-04-04T11:51:40.848Z,9.711656
2023-04-04T11:52:43.404Z,9.711657
2023-04-04T11:53:41.825Z,9.711679
2023-04-04T11:54:41.366Z,9.711724
2023-04-04T11:55:41.052Z,9.711728
2023-04-04T11:56:42.777Z,9.711700
2023-04-04T11:57:40.851Z,9.711655
2023-04-04T11:58:40.873Z,9.711643
2023-04-04T11:59:40.875Z,9.711674
2023-04-04T12:00:40.823Z,9.711674
2023-04-04T12:01:40.775Z,9.711671
2023-04-04T12:02:40.855Z,9.711692
2023-04-04T12:03:40.885Z,9.711680
2023-04-04T12:04:43.232Z,9.711667
2023-04-04T12:05:41.171Z,9.711669
2023-04-04T12:06:40.773Z,9.711665
2023-04-04T12:07:41.375Z,9.711678
2023-04-04T12:08:40.714Z,9.711643
2023-04-04T12:09:40.727Z,9.711649
2023-04-04T12:10:40.694Z,9.711596
2023-04-04T12:11:40.680Z,9.711652
2023-04-04T12:12:40.683Z,9.711689
2023-04-04T12:13:40.698Z,9.711652
2023-04-04T12:14:40.672Z,9.711646
2023-04-04T12:15:41.718Z,9.711643
2023-04-04T12:16:41.335Z,9.711596
2023-04-04T12:17:40.647Z,9.711658
2023-04-04T12:18:40.638Z,9.711676
2023-04-04T12:19:40.630Z,9.711662
2023-04-04T12:20:40.617Z,9.711655
2023-04-04T12:21:40.614Z,9.711672
2023-04-04T12:22:40.601Z,9.711652